This is the latest recevied weather packets stored in our database for station/object WX7FGZ-5. If no packets are shown the sender has not sent any weather packets the latest 10 day(s).
| Time | Temp. | Humidity | Pressure | Rain* | Wind** | Luminosity | Snow |
|---|---|---|---|---|---|---|---|
| 1777976673 | 3.33° C | 63% | 1017.3 hPa | 0 mm | - | 0 W/m² | - |
| 1777976403 | 3.33° C | 63% | 1017.3 hPa | 0 mm | - | 0 W/m² | - |
| 1777976297 | 3.89° C | 61% | 1017.5 hPa | 0 mm | - | 0 W/m² | - |
| 1777976297 | 3.33° C | 62% | 1017.5 hPa | 0 mm | - | 0 W/m² | - |
| 1777975803 | 3.33° C | 62% | 1017.5 hPa | 0 mm | - | 0 W/m² | - |
| 1777975512 | 3.89° C | 61% | 1017.5 hPa | 0 mm | - | 0 W/m² | - |
| 1777974903 | 4.44° C | 60% | 1017.6 hPa | 0 mm | - | 0 W/m² | - |
| 1777974610 | 4.44° C | 61% | 1017.5 hPa | 0 mm | - | 0 W/m² | - |
| 1777974004 | 4.44° C | 59% | 1017.7 hPa | 0 mm | - | 0 W/m² | - |
| 1777973409 | 4.44° C | 59% | 1017.8 hPa | 0 mm | - | 0 W/m² | - |
| 1777973291 | 4.44° C | 59% | 1017.8 hPa | 0 mm | - | 0 W/m² | - |
| 1777973102 | 4.44° C | 59% | 1017.8 hPa | 0 mm | - | 0 W/m² | - |
| 1777972808 | 3.89° C | 59% | 1017.7 hPa | 0 mm | - | 0 W/m² | - |
| 1777971902 | 3.89° C | 60% | 1017.7 hPa | 0 mm | - | 0 W/m² | - |
| 1777971607 | 3.89° C | 59% | 1017.7 hPa | 0 mm | - | 0 W/m² | - |
| 1777971306 | 4.44° C | 58% | 1017.7 hPa | 0 mm | - | 0 W/m² | - |
| 1777971002 | 4.44° C | 59% | 1017.9 hPa | 0 mm | - | 0 W/m² | - |
| 1777970902 | 4.44° C | 59% | 1017.6 hPa | 0 mm | - | 0 W/m² | - |
| 1777970703 | 4.44° C | 59% | 1017.6 hPa | 0 mm | - | 0 W/m² | - |
| 1777970105 | 4.44° C | 59% | 1017.7 hPa | 0 mm | - | 0 W/m² | - |
| 1777970008 | 4.44° C | 59% | 1017.7 hPa | 0 mm | - | 0 W/m² | - |
| 1777969803 | 4.44° C | 59% | 1017.7 hPa | 0 mm | - | 0 W/m² | - |
| 1777969505 | 4.44° C | 58% | 1017.6 hPa | 0 mm | - | 0 W/m² | - |
| 1777968603 | 4.44° C | 55% | 1017.6 hPa | 0 mm | - | 0 W/m² | - |
| 1777965225 | 5.56° C | 54% | 1018.6 hPa | 0 mm | - | 0 W/m² | - |
* Rain latest hour (hover to see other rain measurements)
** Current wind speed in m/s (hover to see current wind gust speed)